createdAt,value
2022-12-31T00:01:52.765Z,7.80
2022-12-31T00:04:21.554Z,7.70
2022-12-31T00:06:51.292Z,7.70
2022-12-31T00:09:20.783Z,7.70
2022-12-31T00:11:49.453Z,7.70
2022-12-31T00:14:17.820Z,7.80
2022-12-31T00:16:46.426Z,7.80
2022-12-31T00:19:14.877Z,7.80
2022-12-31T00:21:45.540Z,7.80
2022-12-31T00:24:15.705Z,7.90
2022-12-31T00:26:45.722Z,7.90
2022-12-31T00:29:14.504Z,7.90
2022-12-31T00:31:43.388Z,7.90
2022-12-31T00:34:11.911Z,7.90
2022-12-31T00:36:42.904Z,7.90
2022-12-31T00:39:12.571Z,7.90
2022-12-31T00:41:44.412Z,7.90
2022-12-31T00:44:13.654Z,7.90
2022-12-31T00:49:10.639Z,7.70
2022-12-31T00:51:39.108Z,7.70
2022-12-31T00:54:08.815Z,7.70
2022-12-31T00:56:37.877Z,7.70
2022-12-31T00:59:09.988Z,7.70
2022-12-31T01:01:44.658Z,7.70
2022-12-31T01:04:23.044Z,7.70
2022-12-31T01:06:52.443Z,7.70
2022-12-31T01:09:21.286Z,7.70
2022-12-31T01:11:52.779Z,7.80
2022-12-31T01:14:24.016Z,7.80
2022-12-31T01:16:54.505Z,7.90
2022-12-31T01:19:25.370Z,7.90
2022-12-31T01:21:55.106Z,7.90
2022-12-31T01:24:24.640Z,8.00
2022-12-31T01:26:57.810Z,8.10
2022-12-31T01:29:27.992Z,8.10
2022-12-31T01:31:56.758Z,8.20
2022-12-31T01:34:25.640Z,8.20
2022-12-31T01:36:54.025Z,8.30
2022-12-31T01:39:22.567Z,8.40
2022-12-31T01:41:51.167Z,8.40
2022-12-31T01:44:49.841Z,8.50
2022-12-31T01:47:26.263Z,8.50
2022-12-31T01:49:59.519Z,8.60
2022-12-31T01:52:32.245Z,8.60
2022-12-31T01:55:05.126Z,8.70
2022-12-31T01:57:34.155Z,8.70
2022-12-31T02:00:05.512Z,8.80
2022-12-31T02:02:34.143Z,8.90
2022-12-31T02:05:06.858Z,9.00
2022-12-31T02:07:38.026Z,9.10
2022-12-31T02:10:07.519Z,9.10
2022-12-31T02:12:37.105Z,9.10
2022-12-31T02:15:09.091Z,9.20
2022-12-31T02:17:50.259Z,9.20
2022-12-31T02:20:49.977Z,9.20
2022-12-31T02:23:53.104Z,9.20
2022-12-31T02:26:50.796Z,9.20
2022-12-31T02:30:01.285Z,9.30
2022-12-31T02:32:41.448Z,9.30
2022-12-31T02:35:16.165Z,9.30
2022-12-31T02:37:46.787Z,9.30
2022-12-31T02:40:20.985Z,9.30
2022-12-31T02:42:55.325Z,9.30
2022-12-31T02:45:30.087Z,9.30
2022-12-31T02:48:23.720Z,9.30
2022-12-31T02:51:01.532Z,9.30
2022-12-31T02:54:06.528Z,9.40
2022-12-31T02:56:43.086Z,9.40
2022-12-31T02:59:46.031Z,9.30
2022-12-31T03:02:19.691Z,9.30
2022-12-31T03:04:52.738Z,9.40
2022-12-31T03:07:24.366Z,9.40
2022-12-31T03:09:53.179Z,9.40
2022-12-31T03:12:42.358Z,9.40
2022-12-31T03:15:21.157Z,9.50
2022-12-31T03:17:52.484Z,9.50
2022-12-31T03:20:43.871Z,9.50
2022-12-31T03:23:17.941Z,9.50
2022-12-31T03:25:45.512Z,9.50
2022-12-31T03:28:16.618Z,9.50
2022-12-31T03:30:47.431Z,9.50
2022-12-31T03:33:16.547Z,9.60
2022-12-31T03:35:48.776Z,9.60
2022-12-31T03:38:18.624Z,9.70
2022-12-31T03:40:49.231Z,9.70
2022-12-31T03:43:19.612Z,9.70
2022-12-31T03:45:51.406Z,9.70
2022-12-31T03:48:20.956Z,9.80
2022-12-31T03:50:51.838Z,9.80
2022-12-31T03:53:20.270Z,9.80
2022-12-31T03:55:52.510Z,9.90
2022-12-31T03:58:21.126Z,10.00
2022-12-31T04:00:49.489Z,10.50
2022-12-31T04:03:17.972Z,10.10
2022-12-31T04:05:55.572Z,10.20
2022-12-31T04:08:24.006Z,10.10
2022-12-31T04:10:54.453Z,10.10
2022-12-31T04:13:23.020Z,10.20
2022-12-31T04:15:53.508Z,10.20
2022-12-31T04:18:22.059Z,10.30
2022-12-31T04:20:50.655Z,10.30
2022-12-31T04:23:20.995Z,10.40
2022-12-31T04:25:50.606Z,10.50
2022-12-31T04:28:19.170Z,10.50
2022-12-31T04:30:47.675Z,10.50
2022-12-31T04:33:16.254Z,10.60
2022-12-31T04:35:44.751Z,10.60
2022-12-31T04:38:13.220Z,10.60
2022-12-31T04:40:56.858Z,10.60
2022-12-31T04:43:25.221Z,10.70
2022-12-31T04:45:53.574Z,10.60
2022-12-31T04:48:22.168Z,10.60
2022-12-31T04:50:51.322Z,10.60
2022-12-31T04:53:20.781Z,10.70
2022-12-31T04:55:50.793Z,10.70
2022-12-31T04:58:19.526Z,10.70
2022-12-31T05:00:50.242Z,10.70
2022-12-31T05:03:21.171Z,10.80
2022-12-31T05:05:50.162Z,10.80
2022-12-31T05:08:19.110Z,10.80
2022-12-31T05:10:50.155Z,10.90
2022-12-31T05:13:23.331Z,10.90
2022-12-31T05:15:54.191Z,10.80
2022-12-31T05:18:22.830Z,10.90
2022-12-31T05:20:51.274Z,11.00
2022-12-31T05:23:20.060Z,11.10
2022-12-31T05:25:50.004Z,11.10
2022-12-31T05:28:19.752Z,11.10
2022-12-31T05:30:51.121Z,11.20
2022-12-31T05:33:20.137Z,11.20
2022-12-31T05:35:48.361Z,11.10
2022-12-31T05:38:17.030Z,11.00
2022-12-31T05:40:45.175Z,10.90
2022-12-31T05:43:14.669Z,10.90
2022-12-31T05:45:42.913Z,10.90
2022-12-31T05:48:11.119Z,10.80
2022-12-31T05:50:39.403Z,10.80
2022-12-31T05:53:07.575Z,10.80
2022-12-31T05:55:35.762Z,10.70
2022-12-31T05:58:04.049Z,10.70
2022-12-31T06:00:33.716Z,10.70
2022-12-31T06:03:02.007Z,10.70
2022-12-31T06:05:30.286Z,10.70
2022-12-31T06:07:58.494Z,10.70
2022-12-31T06:10:26.897Z,10.80
2022-12-31T06:12:55.838Z,10.70
2022-12-31T06:15:24.444Z,10.70
2022-12-31T06:17:54.428Z,10.70
2022-12-31T06:20:23.013Z,10.70
2022-12-31T06:22:51.472Z,10.60
2022-12-31T06:25:19.730Z,10.70
2022-12-31T06:27:49.876Z,10.70
2022-12-31T06:30:20.135Z,10.70
2022-12-31T06:32:48.414Z,10.70
2022-12-31T06:35:18.032Z,10.80
2022-12-31T06:37:46.299Z,10.80
2022-12-31T06:40:15.146Z,10.90
2022-12-31T06:42:44.477Z,10.90
2022-12-31T06:45:12.962Z,10.80
2022-12-31T06:47:41.606Z,10.80
2022-12-31T06:50:10.484Z,10.90
2022-12-31T06:52:41.159Z,10.90
2022-12-31T06:55:10.992Z,10.90
2022-12-31T06:57:41.091Z,11.00
2022-12-31T07:00:11.338Z,11.00
2022-12-31T07:03:01.783Z,11.10
2022-12-31T07:05:40.590Z,11.20
2022-12-31T07:08:26.148Z,11.20
2022-12-31T07:10:59.901Z,11.20
2022-12-31T07:13:44.189Z,11.30
2022-12-31T07:16:29.453Z,11.20
2022-12-31T07:19:09.529Z,11.30
2022-12-31T07:21:40.089Z,11.40
2022-12-31T07:24:11.691Z,11.40
2022-12-31T07:27:06.545Z,11.50
2022-12-31T07:29:51.619Z,11.50
2022-12-31T07:32:42.934Z,11.60
2022-12-31T07:35:23.224Z,11.60
2022-12-31T07:38:03.712Z,11.70
2022-12-31T07:40:41.280Z,11.70
2022-12-31T07:43:18.518Z,11.70
2022-12-31T07:45:54.052Z,11.70
2022-12-31T07:48:28.038Z,11.80
2022-12-31T07:50:58.195Z,11.80
2022-12-31T07:53:28.699Z,11.90
2022-12-31T07:56:01.096Z,12.00
2022-12-31T07:58:41.827Z,12.10
2022-12-31T08:01:13.471Z,12.20
2022-12-31T08:03:49.772Z,12.20
2022-12-31T08:06:33.054Z,12.30
2022-12-31T08:09:08.881Z,12.40
2022-12-31T08:11:44.660Z,12.50
2022-12-31T08:14:15.895Z,12.60
2022-12-31T08:16:44.657Z,12.70
2022-12-31T08:19:26.698Z,12.80
2022-12-31T08:22:17.230Z,13.00
2022-12-31T08:24:57.176Z,13.00
2022-12-31T08:27:37.082Z,13.00
2022-12-31T08:30:12.204Z,13.10
2022-12-31T08:32:47.695Z,13.30
2022-12-31T08:35:26.051Z,13.30
2022-12-31T08:38:00.517Z,13.40
2022-12-31T08:40:40.485Z,13.30
2022-12-31T08:43:26.254Z,13.40
2022-12-31T08:45:55.268Z,13.50
2022-12-31T08:48:29.308Z,13.50
2022-12-31T08:50:58.366Z,13.60
2022-12-31T08:53:27.155Z,13.60
2022-12-31T08:56:01.859Z,13.60
2022-12-31T08:58:43.795Z,13.80
2022-12-31T09:01:14.999Z,13.80
2022-12-31T09:04:07.020Z,13.90
2022-12-31T09:06:39.578Z,13.90
2022-12-31T09:09:17.274Z,13.90
2022-12-31T09:11:55.639Z,13.90
2022-12-31T09:14:42.294Z,13.90
2022-12-31T09:17:23.612Z,13.90
2022-12-31T09:19:52.559Z,14.10
2022-12-31T09:22:21.374Z,14.10
2022-12-31T09:24:54.140Z,14.20
2022-12-31T09:27:29.174Z,14.30
2022-12-31T09:30:04.140Z,14.40
2022-12-31T09:32:43.102Z,14.50
2022-12-31T09:35:20.609Z,14.60
2022-12-31T09:37:59.672Z,14.70
2022-12-31T09:40:59.907Z,14.90
2022-12-31T09:44:05.875Z,15.00
2022-12-31T09:47:05.789Z,15.20
2022-12-31T09:50:16.113Z,15.30
2022-12-31T09:53:06.115Z,15.40
2022-12-31T09:55:38.567Z,15.60
2022-12-31T09:58:25.987Z,15.50
2022-12-31T10:01:00.413Z,15.70
2022-12-31T10:03:44.111Z,15.80
2022-12-31T10:06:25.699Z,15.90
2022-12-31T10:09:30.812Z,16.00
2022-12-31T10:12:19.694Z,16.00
2022-12-31T10:14:57.804Z,16.10
2022-12-31T10:17:41.031Z,16.10
2022-12-31T10:20:25.751Z,16.10
2022-12-31T10:23:19.389Z,16.20
2022-12-31T10:26:06.056Z,16.20
2022-12-31T10:28:50.139Z,16.20
2022-12-31T10:31:32.751Z,16.20
2022-12-31T10:34:15.795Z,16.20
2022-12-31T10:36:58.356Z,16.20
2022-12-31T10:39:54.543Z,16.20
2022-12-31T10:43:01.952Z,16.20
2022-12-31T10:46:07.696Z,16.20
2022-12-31T10:49:12.159Z,16.20
2022-12-31T10:52:22.575Z,16.20
2022-12-31T10:55:18.405Z,16.20
2022-12-31T10:58:25.876Z,16.20
2022-12-31T11:01:03.661Z,16.10
2022-12-31T11:04:01.186Z,16.00
2022-12-31T11:07:11.292Z,16.00
2022-12-31T11:10:30.199Z,15.70
2022-12-31T11:13:46.134Z,15.80
2022-12-31T11:16:39.184Z,15.70
2022-12-31T11:19:18.435Z,15.70
2022-12-31T11:22:13.946Z,15.70
2022-12-31T11:25:02.162Z,15.80
2022-12-31T11:27:49.458Z,15.80
2022-12-31T11:30:23.195Z,16.70
2022-12-31T11:33:08.443Z,15.80
2022-12-31T11:35:51.026Z,15.90
2022-12-31T11:38:24.273Z,15.90
2022-12-31T11:41:06.695Z,16.00
2022-12-31T11:43:41.047Z,16.00
2022-12-31T11:46:48.771Z,16.10
2022-12-31T11:49:31.044Z,16.10
2022-12-31T11:52:21.049Z,16.10
2022-12-31T11:54:57.054Z,16.20
2022-12-31T11:57:31.496Z,16.30
2022-12-31T12:00:03.610Z,16.30
2022-12-31T12:02:37.285Z,16.50
2022-12-31T12:05:11.339Z,16.60
2022-12-31T12:07:40.131Z,16.60
2022-12-31T12:10:22.335Z,16.70
2022-12-31T12:12:51.324Z,16.80
2022-12-31T12:15:22.679Z,16.90
2022-12-31T12:17:56.069Z,17.00
2022-12-31T12:20:31.955Z,17.00
2022-12-31T12:23:02.003Z,17.00
2022-12-31T12:25:39.791Z,17.00
2022-12-31T12:28:29.565Z,17.00
2022-12-31T12:31:00.945Z,17.00
2022-12-31T12:33:30.868Z,16.90
2022-12-31T12:36:11.242Z,17.00
2022-12-31T12:38:40.225Z,17.50
2022-12-31T12:41:12.371Z,17.00
2022-12-31T12:43:41.804Z,16.90
2022-12-31T12:46:20.984Z,16.90
2022-12-31T12:48:55.499Z,16.90
2022-12-31T12:51:39.820Z,16.90
2022-12-31T12:54:19.635Z,16.90
2022-12-31T12:56:58.343Z,17.00
2022-12-31T12:59:49.250Z,16.90
2022-12-31T13:02:32.647Z,16.90
2022-12-31T13:05:16.575Z,16.90
2022-12-31T13:07:55.341Z,17.00
2022-12-31T13:10:34.557Z,17.00
2022-12-31T13:13:24.862Z,16.90
2022-12-31T13:16:00.970Z,17.00
2022-12-31T13:18:41.649Z,17.00
2022-12-31T13:21:36.763Z,17.00
2022-12-31T13:24:19.633Z,16.80
2022-12-31T13:26:55.833Z,16.90
2022-12-31T13:29:28.323Z,16.90
2022-12-31T13:31:58.594Z,16.90
2022-12-31T13:34:31.373Z,16.90
2022-12-31T13:37:06.802Z,16.90
2022-12-31T13:39:42.772Z,16.90
2022-12-31T13:42:18.101Z,16.90
2022-12-31T13:44:51.124Z,16.90
2022-12-31T13:47:23.053Z,16.90
2022-12-31T13:49:57.114Z,16.90
2022-12-31T13:52:32.005Z,16.90
2022-12-31T13:55:09.266Z,16.80
2022-12-31T14:00:58.140Z,16.90
2022-12-31T14:03:38.470Z,16.80
2022-12-31T14:06:12.648Z,16.80
2022-12-31T14:08:42.889Z,16.80
2022-12-31T14:11:23.898Z,16.70
2022-12-31T14:14:08.713Z,16.70
2022-12-31T14:16:44.818Z,16.70
2022-12-31T14:19:27.406Z,16.60
2022-12-31T14:22:10.807Z,16.70
2022-12-31T14:24:46.020Z,16.70
2022-12-31T14:27:23.061Z,16.70
2022-12-31T14:29:56.503Z,16.70
2022-12-31T14:33:07.834Z,16.80
2022-12-31T14:35:56.652Z,16.80
2022-12-31T14:38:40.292Z,16.70
2022-12-31T14:41:26.553Z,16.80
2022-12-31T14:44:05.996Z,16.70
2022-12-31T14:46:40.237Z,16.70
2022-12-31T14:49:26.146Z,16.70
2022-12-31T14:51:54.431Z,16.70
2022-12-31T14:54:30.269Z,16.60
2022-12-31T14:57:10.184Z,16.50
2022-12-31T14:59:40.837Z,16.40
2022-12-31T15:02:27.594Z,16.50
2022-12-31T15:05:12.622Z,16.40
2022-12-31T15:07:50.824Z,16.30
2022-12-31T15:10:24.098Z,16.20
2022-12-31T15:13:06.199Z,16.20
2022-12-31T15:16:15.163Z,16.80
2022-12-31T15:19:08.251Z,16.10
2022-12-31T15:21:47.577Z,16.20
2022-12-31T15:24:20.757Z,16.10
2022-12-31T15:26:52.500Z,16.00
2022-12-31T15:29:28.973Z,16.00
2022-12-31T15:32:03.471Z,15.90
2022-12-31T15:34:34.877Z,15.90
2022-12-31T15:37:05.315Z,15.90
2022-12-31T15:39:44.446Z,15.90
2022-12-31T15:42:38.702Z,16.70
2022-12-31T15:45:14.395Z,15.90
2022-12-31T15:47:47.837Z,15.40
2022-12-31T15:50:19.294Z,15.90
2022-12-31T15:52:52.569Z,16.20
2022-12-31T15:55:31.219Z,15.90
2022-12-31T15:58:02.602Z,16.00
2022-12-31T16:00:49.380Z,16.00
2022-12-31T16:03:27.030Z,15.90
2022-12-31T16:06:00.449Z,15.90
2022-12-31T16:08:31.912Z,15.90
2022-12-31T16:11:03.555Z,15.90
2022-12-31T16:13:34.956Z,15.90
2022-12-31T16:16:05.617Z,15.80
2022-12-31T16:18:44.484Z,15.90
2022-12-31T16:21:26.867Z,15.90
2022-12-31T16:23:57.800Z,15.90
2022-12-31T16:26:31.262Z,16.00
2022-12-31T16:29:01.089Z,16.00
2022-12-31T16:31:30.667Z,16.00
2022-12-31T16:34:08.794Z,16.00
2022-12-31T16:36:36.995Z,16.00
2022-12-31T16:39:27.928Z,16.10
2022-12-31T16:42:10.271Z,16.10
2022-12-31T16:44:39.531Z,16.00
2022-12-31T16:47:09.953Z,16.00
2022-12-31T16:49:41.039Z,16.10
2022-12-31T16:52:19.352Z,16.10
2022-12-31T16:54:49.170Z,16.10
2022-12-31T16:57:22.465Z,16.20
2022-12-31T16:59:55.845Z,16.20
2022-12-31T17:02:31.439Z,16.20
2022-12-31T17:05:03.361Z,16.20
2022-12-31T17:07:43.618Z,16.20
2022-12-31T17:10:22.537Z,16.20
2022-12-31T17:15:46.182Z,16.20
2022-12-31T17:18:20.191Z,16.30
2022-12-31T17:20:53.601Z,16.40
2022-12-31T17:23:26.619Z,16.30
2022-12-31T17:26:04.375Z,16.30
2022-12-31T17:28:40.790Z,16.30
2022-12-31T17:31:28.822Z,16.20
2022-12-31T17:34:07.513Z,16.20
2022-12-31T17:36:37.322Z,16.20
2022-12-31T17:39:18.707Z,16.20
2022-12-31T17:41:48.269Z,16.30
2022-12-31T17:44:19.992Z,16.30
2022-12-31T17:46:53.907Z,16.40
2022-12-31T17:49:27.418Z,16.40
2022-12-31T17:51:57.012Z,16.40
2022-12-31T17:54:25.356Z,16.40
2022-12-31T17:56:54.065Z,16.40
2022-12-31T17:59:25.287Z,16.30
2022-12-31T18:01:54.546Z,16.20
2022-12-31T18:04:23.009Z,16.20
2022-12-31T18:06:54.388Z,16.20
2022-12-31T18:09:24.070Z,16.30
2022-12-31T18:11:55.551Z,16.30
2022-12-31T18:14:26.464Z,16.30
2022-12-31T18:16:54.688Z,16.20
2022-12-31T18:19:54.392Z,16.20
2022-12-31T18:22:15.769Z,16.10
2022-12-31T18:24:45.947Z,16.10
2022-12-31T18:27:18.557Z,16.00
2022-12-31T18:29:48.571Z,15.90
2022-12-31T18:32:22.189Z,16.00
2022-12-31T18:34:50.685Z,15.90
2022-12-31T18:37:22.001Z,15.70
2022-12-31T18:39:51.925Z,15.80
2022-12-31T18:42:21.594Z,15.80
2022-12-31T18:44:49.822Z,15.70
2022-12-31T18:47:23.176Z,15.60
2022-12-31T18:49:51.863Z,15.70
2022-12-31T18:52:22.498Z,15.80
2022-12-31T18:54:52.254Z,15.80
2022-12-31T18:57:20.630Z,15.80
2022-12-31T18:59:52.976Z,15.70
2022-12-31T19:02:22.240Z,15.70
2022-12-31T19:04:50.413Z,15.80
2022-12-31T19:07:18.581Z,15.70
2022-12-31T19:09:48.334Z,15.60
2022-12-31T19:12:21.458Z,15.60
2022-12-31T19:14:49.677Z,15.60
2022-12-31T19:17:23.999Z,15.50
2022-12-31T19:19:52.149Z,15.50
2022-12-31T19:22:20.383Z,15.30
2022-12-31T19:24:48.673Z,15.40
2022-12-31T19:27:17.096Z,15.40
2022-12-31T19:29:47.713Z,15.30
2022-12-31T19:32:16.000Z,16.30
2022-12-31T19:34:47.251Z,15.30
2022-12-31T19:37:16.527Z,15.20
2022-12-31T19:39:44.734Z,15.20
2022-12-31T19:42:16.990Z,15.20
2022-12-31T19:44:48.591Z,15.30
2022-12-31T19:47:16.859Z,15.10
2022-12-31T19:49:45.170Z,15.10
2022-12-31T19:52:13.625Z,15.00
2022-12-31T19:54:42.045Z,15.00
2022-12-31T19:57:10.234Z,15.00
2022-12-31T19:59:38.569Z,15.00
2022-12-31T20:02:11.435Z,14.90
2022-12-31T20:04:42.745Z,14.90
2022-12-31T20:07:10.955Z,14.90
2022-12-31T20:09:39.148Z,14.90
2022-12-31T20:12:07.804Z,14.80
2022-12-31T20:14:38.161Z,14.80
2022-12-31T20:17:06.423Z,14.90
2022-12-31T20:19:39.225Z,15.00
2022-12-31T20:22:07.566Z,15.10
2022-12-31T20:24:35.745Z,14.60
2022-12-31T20:27:04.020Z,15.30
2022-12-31T20:29:35.608Z,15.20
2022-12-31T20:32:03.920Z,15.20
2022-12-31T20:34:33.120Z,15.30
2022-12-31T20:37:02.725Z,15.20
2022-12-31T20:39:31.001Z,15.30
2022-12-31T20:42:00.193Z,15.30
2022-12-31T20:44:28.443Z,15.40
2022-12-31T20:46:56.605Z,15.40
2022-12-31T20:49:52.136Z,15.40
2022-12-31T20:52:14.481Z,15.40
2022-12-31T20:54:42.600Z,15.40
2022-12-31T20:57:12.816Z,15.40
2022-12-31T20:59:41.128Z,15.50
2022-12-31T21:02:24.358Z,15.50
2022-12-31T21:05:02.812Z,15.50
2022-12-31T21:07:32.615Z,15.40
2022-12-31T21:10:00.871Z,15.40
2022-12-31T21:12:53.016Z,15.40
2022-12-31T21:15:21.680Z,15.40
2022-12-31T21:17:49.846Z,15.40
2022-12-31T21:20:18.218Z,15.40
2022-12-31T21:22:48.785Z,15.30
2022-12-31T21:25:17.113Z,15.30
2022-12-31T21:27:45.440Z,15.30
2022-12-31T21:30:18.811Z,15.30
2022-12-31T21:32:47.768Z,15.30
2022-12-31T21:38:08.291Z,15.30
2022-12-31T21:40:37.446Z,15.50
2022-12-31T21:43:05.615Z,15.40
2022-12-31T21:45:35.111Z,15.50
2022-12-31T21:48:21.971Z,15.50
2022-12-31T21:50:52.082Z,15.50
2022-12-31T21:53:26.358Z,15.40
2022-12-31T21:56:13.608Z,15.40
2022-12-31T21:58:44.001Z,15.50
2022-12-31T22:01:35.816Z,15.50
2022-12-31T22:04:04.246Z,15.50
2022-12-31T22:06:34.721Z,15.50
2022-12-31T22:09:04.447Z,15.50
2022-12-31T22:11:32.696Z,15.40
2022-12-31T22:14:01.869Z,15.60
2022-12-31T22:16:31.654Z,15.50
2022-12-31T22:18:59.925Z,15.40
2022-12-31T22:21:29.199Z,15.50
2022-12-31T22:23:59.494Z,15.40
2022-12-31T22:26:30.209Z,15.30
2022-12-31T22:28:59.704Z,15.40
2022-12-31T22:31:29.989Z,15.40
2022-12-31T22:33:59.381Z,15.40
2022-12-31T22:36:29.619Z,15.40
2022-12-31T22:38:59.084Z,15.50
2022-12-31T22:41:29.887Z,15.50
2022-12-31T22:44:03.993Z,15.50
2022-12-31T22:46:33.685Z,15.50
2022-12-31T22:49:04.659Z,15.40
2022-12-31T22:51:55.963Z,15.30
2022-12-31T22:54:21.711Z,15.30
2022-12-31T22:56:51.553Z,15.40
2022-12-31T22:59:19.949Z,15.20
2022-12-31T23:01:49.532Z,15.20
2022-12-31T23:04:17.889Z,15.20
2022-12-31T23:06:46.601Z,15.10
2022-12-31T23:09:39.769Z,15.10
2022-12-31T23:12:10.152Z,15.20
2022-12-31T23:14:56.633Z,15.10
2022-12-31T23:17:44.654Z,15.10
2022-12-31T23:20:34.810Z,15.10
2022-12-31T23:23:10.070Z,15.10
2022-12-31T23:25:45.391Z,15.10
2022-12-31T23:28:17.556Z,15.00
2022-12-31T23:30:45.992Z,15.10
2022-12-31T23:33:16.743Z,15.00
2022-12-31T23:35:45.267Z,15.00
2022-12-31T23:38:14.840Z,15.00
2022-12-31T23:40:43.083Z,14.90
2022-12-31T23:43:23.096Z,14.80
2022-12-31T23:45:52.060Z,14.90
2022-12-31T23:48:24.362Z,14.80
2022-12-31T23:50:54.180Z,14.80
2022-12-31T23:53:25.334Z,14.70
2022-12-31T23:55:54.439Z,14.70
2022-12-31T23:58:24.285Z,14.90
